메인 페이지
METAR-TAF:

METAR-TAF

공항 :

Otis Air National Guard Base

Falmouth, 매사추세츠, 미국

위도: 41-39N, 경도: 070-31W, 고도: 40m

현재 날씨관측

예보는 48분 전, 02:55시(UTC)에 발표되었습니다.
동북동12kt
온도 6°C
습도 87%
기압 1008 hPa
시정: 16.1km
고도 9500ft 상공 구름 많음
고도 11000ft 상공 흐림

METAR: KFMH 120255Z 06012KT 10SM BKN095 OVC110 06/04 A2976

시각: 23:43 (03:43 UTC)

예보

예보는 4 시간 11분 전, 23:32시(UTC)에 발표되었습니다.
예보 대상 시간: 12일 00시부터 12일 24시까지 (UTC)
동북동11kt, 순간 최대 풍속 21kt
시정: 10km
고도 400ft 상공 흐림
12일 0200시부터 (UTC)
동북동11kt, 순간 최대 풍속 20kt
시정: 9.7km
고도 1000ft 상공 흐림
박무
12일 0500시부터 (UTC)
북동9kt
시정: 10km
고도 2000ft 상공 흐림
12일 1300시부터 (UTC)
북동12kt, 순간 최대 풍속 21kt
시정: 10km
고도 3000ft 상공 구름 많음
12일 1500시부터 (UTC)
북동13kt, 순간 최대 풍속 22kt
시정: 10km
고도 800ft 상공 흐림
12일 2200시부터 (UTC)
동북동13kt, 순간 최대 풍속 22kt
시정: 10km
고도 2000ft 상공 구름 많음

TAF: KFMH 112332Z 1200/1224 06011G21KT P6SM OVC004 FM120200 06011G20KT 6SM BR OVC010 FM120500 05009KT P6SM OVC020 FM121300 05012G21KT P6SM BKN030 FM121500 05013G22KT P6SM OVC008 FM122200 06013G22KT P6SM BKN020

4,000개 이상의 공항 관측 자료 및 예보 (METAR 및 TAF 보고).

지도상에서 검색 가능한 기상관측소가 노란 점과 빨간 점으로 표시되어 있습니다.

기상관측소 명을 보려면 표시 위로 마우스를 이동하세요.

날씨 관측과 예보를 보려면 클릭하세요.

지도 변경 : 확대하려면 엑스 표시가 있는 녹색 버튼, 축소하려면 빼기 표시가 있는 녹색 버튼, 다음 페이지의 지도를 보려면 녹색 화살표를 클릭하세요.


METAR-TAF: